Seabourn Quest — C6YZ5 — position and weather

sailwx.info

Track history (hours):
 
Tides and Currents Weather Stations Pressure Air Temp Water Temp Dewpoint Dewpoint Depression Visibility Wind Speed Wind Dir Waves Ship Positions

Seabourn Quest

Last reported at 2015-Aug-28 03:33 UTC. Time now 2015-Aug-30 22:29 UTC.
Position N 51°09' W 057°26'.

Length 198 m; draft 6.6 m.

Type: Ship. MMSI: 311038900.

Date/timePositionNaut miles runAvg speedWind from/ knotsBaromVisibWave heightAir tempDewpointWater temp
2015-Aug-28 03:33N 51°09' W 057°26'1413.9
2015-Aug-28 02:33N 51°17' W 057°08'72514.1
2015-Aug-25 23:20N 63°07' W 052°40'1517.4
2015-Aug-25 22:28N 63°22' W 052°37'1718.3
2015-Aug-25 21:34N 63°38' W 052°24'1818.4
2015-Aug-25 20:33N 63°56' W 052°18'1716.8
2015-Aug-25 19:33N 64°08' W 051°51'4 3.9
2015-Aug-25 18:33N 64°10' W 051°43'0 0.0
2015-Aug-25 17:33N 64°10' W 051°43'0 0.0
2015-Aug-25 16:33N 64°10' W 051°43'0 0.0
2015-Aug-25 15:33N 64°10' W 051°43'0 0.0
2015-Aug-25 14:33N 64°10' W 051°43'0 0.0
2015-Aug-25 13:33N 64°10' W 051°43'0 0.0
2015-Aug-25 12:33N 64°10' W 051°43'0 0.0
2015-Aug-25 11:33N 64°10' W 051°43'0 0.0
2015-Aug-25 10:33N 64°10' W 051°43'0 0.0
2015-Aug-25 09:33N 64°10' W 051°43'6 6.4
2015-Aug-25 08:33N 64°07' W 051°56'1010.1
2015-Aug-25 07:33N 64°07' W 052°19'1414.2
2015-Aug-25 06:34N 64°20' W 052°33'1414.4
2015-Aug-25 05:33N 64°33' W 052°47'1414.5
2015-Aug-25 04:33N 64°46' W 053°01'1414.3
2015-Aug-25 03:34N 64°59' W 053°16'1414.2
2015-Aug-25 02:34N 65°12' W 053°30'1414.4
2015-Aug-25 01:34N 65°25' W 053°44'1414.4
2015-Aug-25 00:33N 65°38' W 053°57'  
2015-Aug-22 05:19N 65°04' W 053°31'1113.8
2015-Aug-22 04:33N 64°54' W 053°24'1414.0
2015-Aug-22 03:33N 64°40' W 053°15'1413.8
2015-Aug-22 02:33N 64°27' W 053°05'1413.9
2015-Aug-22 01:33N 64°14' W 052°56'1413.6
2015-Aug-22 00:33N 64°01' W 052°47'1313.4
2015-Aug-21 23:33N 63°48' W 052°38'1313.3
2015-Aug-21 22:33N 63°36' W 052°23'1313.4
2015-Aug-21 21:33N 63°25' W 052°08'  
Track history (hours):
 
Tides and Currents Weather Stations Pressure Air Temp Water Temp Dewpoint Dewpoint Depression Visibility Wind Speed Wind Dir Waves Ship Positions

Seabourn Quest

Last reported at 2015-Aug-28 03:33 UTC. Time now 2015-Aug-30 22:29 UTC.
Position N 51°09' W 057°26'.

Length 198 m; draft 6.6 m.

Type: Ship. MMSI: 311038900.

Date/timePositionNaut miles runAvg speedWind from/ knotsBaromVisibWave heightAir tempDewpointWater temp
2015-Aug-28 03:33N 51°09' W 057°26'1413.9
2015-Aug-28 02:33N 51°17' W 057°08'72514.1
2015-Aug-25 23:20N 63°07' W 052°40'1517.4
2015-Aug-25 22:28N 63°22' W 052°37'1718.3
2015-Aug-25 21:34N 63°38' W 052°24'1818.4
2015-Aug-25 20:33N 63°56' W 052°18'1716.8
2015-Aug-25 19:33N 64°08' W 051°51'4 3.9
2015-Aug-25 18:33N 64°10' W 051°43'0 0.0
2015-Aug-25 17:33N 64°10' W 051°43'0 0.0
2015-Aug-25 16:33N 64°10' W 051°43'0 0.0
2015-Aug-25 15:33N 64°10' W 051°43'0 0.0
2015-Aug-25 14:33N 64°10' W 051°43'0 0.0
2015-Aug-25 13:33N 64°10' W 051°43'0 0.0
2015-Aug-25 12:33N 64°10' W 051°43'0 0.0
2015-Aug-25 11:33N 64°10' W 051°43'0 0.0
2015-Aug-25 10:33N 64°10' W 051°43'0 0.0
2015-Aug-25 09:33N 64°10' W 051°43'6 6.4
2015-Aug-25 08:33N 64°07' W 051°56'1010.1
2015-Aug-25 07:33N 64°07' W 052°19'1414.2
2015-Aug-25 06:34N 64°20' W 052°33'1414.4
2015-Aug-25 05:33N 64°33' W 052°47'1414.5
2015-Aug-25 04:33N 64°46' W 053°01'1414.3
2015-Aug-25 03:34N 64°59' W 053°16'1414.2
2015-Aug-25 02:34N 65°12' W 053°30'1414.4
2015-Aug-25 01:34N 65°25' W 053°44'1414.4
2015-Aug-25 00:33N 65°38' W 053°57'  
2015-Aug-22 05:19N 65°04' W 053°31'1113.8
2015-Aug-22 04:33N 64°54' W 053°24'1414.0
2015-Aug-22 03:33N 64°40' W 053°15'1413.8
2015-Aug-22 02:33N 64°27' W 053°05'1413.9
2015-Aug-22 01:33N 64°14' W 052°56'1413.6
2015-Aug-22 00:33N 64°01' W 052°47'1313.4
2015-Aug-21 23:33N 63°48' W 052°38'1313.3
2015-Aug-21 22:33N 63°36' W 052°23'1313.4
2015-Aug-21 21:33N 63°25' W 052°08'  

Dump ship's entire track history